createdAt,value
2023-03-19T00:00:13.687Z,7.10
2023-03-19T00:01:15.830Z,7.10
2023-03-19T00:02:19.190Z,7.10
2023-03-19T00:03:21.409Z,7.10
2023-03-19T00:04:27.135Z,7.10
2023-03-19T00:05:29.842Z,7.10
2023-03-19T00:06:39.525Z,7.10
2023-03-19T00:07:41.522Z,7.10
2023-03-19T00:08:43.667Z,7.10
2023-03-19T00:09:48.990Z,7.10
2023-03-19T00:10:52.053Z,7.10
2023-03-19T00:11:54.482Z,7.10
2023-03-19T00:12:56.735Z,7.10
2023-03-19T00:14:00.122Z,7.10
2023-03-19T00:15:02.841Z,7.10
2023-03-19T00:16:06.161Z,7.10
2023-03-19T00:17:08.478Z,7.10
2023-03-19T00:18:10.873Z,7.00
2023-03-19T00:19:13.048Z,7.10
2023-03-19T00:20:18.622Z,7.00
2023-03-19T00:21:23.085Z,7.00
2023-03-19T00:22:34.762Z,7.00
2023-03-19T00:23:40.251Z,7.10
2023-03-19T00:24:44.270Z,7.00
2023-03-19T00:25:49.797Z,7.00
2023-03-19T00:26:52.311Z,7.00
2023-03-19T00:27:57.913Z,7.00
2023-03-19T00:29:00.546Z,7.00
2023-03-19T00:30:02.761Z,7.00
2023-03-19T00:31:13.696Z,7.00
2023-03-19T00:32:20.134Z,7.00
2023-03-19T00:36:45.153Z,7.00
2023-03-19T00:37:50.734Z,6.90
2023-03-19T00:38:56.500Z,6.90
2023-03-19T00:40:08.907Z,6.80
2023-03-19T00:41:13.584Z,6.80
2023-03-19T00:42:17.890Z,6.80
2023-03-19T00:43:26.599Z,6.90
2023-03-19T00:44:36.173Z,6.90
2023-03-19T00:45:50.192Z,6.90
2023-03-19T00:47:11.337Z,6.90
2023-03-19T00:48:23.419Z,6.90
2023-03-19T00:49:36.265Z,6.90
2023-03-19T00:50:54.478Z,6.90
2023-03-19T00:52:11.529Z,6.90
2023-03-19T00:53:22.277Z,6.90
2023-03-19T00:54:35.420Z,6.90
2023-03-19T00:56:00.063Z,6.90
2023-03-19T00:57:14.556Z,6.80
2023-03-19T00:58:34.028Z,6.90
2023-03-19T00:59:56.782Z,6.80
2023-03-19T01:01:02.751Z,6.80
2023-03-19T01:02:16.257Z,6.80
2023-03-19T01:03:33.381Z,6.80
2023-03-19T01:04:38.707Z,6.80
2023-03-19T01:05:41.749Z,6.80
2023-03-19T01:06:45.614Z,6.80
2023-03-19T01:07:51.667Z,6.80
2023-03-19T01:08:53.810Z,6.80
2023-03-19T01:09:56.087Z,6.80
2023-03-19T01:11:08.543Z,6.80
2023-03-19T01:12:14.183Z,6.80
2023-03-19T01:13:18.706Z,6.80
2023-03-19T01:14:32.134Z,6.80
2023-03-19T01:15:50.680Z,6.80
2023-03-19T01:18:20.747Z,6.80
2023-03-19T01:19:18.939Z,6.70
2023-03-19T01:20:33.457Z,6.70
2023-03-19T01:21:55.828Z,6.70
2023-03-19T01:23:05.173Z,6.70
2023-03-19T01:24:17.073Z,6.70
2023-03-19T01:25:25.722Z,6.70
2023-03-19T01:26:32.116Z,6.70
2023-03-19T01:27:47.358Z,6.70
2023-03-19T01:28:50.938Z,6.70
2023-03-19T01:29:57.721Z,6.80
2023-03-19T01:31:11.202Z,6.70
2023-03-19T01:32:14.383Z,6.80
2023-03-19T01:33:25.766Z,6.70
2023-03-19T01:34:32.863Z,6.70
2023-03-19T01:35:38.101Z,6.70
2023-03-19T01:36:42.888Z,6.70
2023-03-19T01:37:54.831Z,6.70
2023-03-19T01:39:04.210Z,6.70
2023-03-19T01:40:21.565Z,6.70
2023-03-19T01:41:27.310Z,6.70
2023-03-19T01:42:41.280Z,6.70
2023-03-19T01:43:51.540Z,6.70
2023-03-19T01:44:54.594Z,6.70
2023-03-19T01:46:19.034Z,6.70
2023-03-19T01:47:46.434Z,6.70
2023-03-19T01:49:08.904Z,6.70
2023-03-19T01:50:31.749Z,6.70
2023-03-19T01:51:42.354Z,6.70
2023-03-19T01:52:55.280Z,6.70
2023-03-19T01:54:05.594Z,6.70
2023-03-19T01:55:11.743Z,6.70
2023-03-19T01:57:05.301Z,6.70
2023-03-19T01:58:24.279Z,6.60
2023-03-19T02:00:18.146Z,6.60
2023-03-19T02:01:48.265Z,6.60
2023-03-19T02:03:26.555Z,6.60
2023-03-19T02:04:48.583Z,6.50
2023-03-19T02:06:06.403Z,6.50
2023-03-19T02:07:31.698Z,6.50
2023-03-19T02:09:11.741Z,6.50
2023-03-19T02:11:22.283Z,6.50
2023-03-19T02:13:14.480Z,6.40
2023-03-19T02:14:59.312Z,6.40
2023-03-19T02:16:37.161Z,6.40
2023-03-19T02:17:59.498Z,6.40
2023-03-19T02:19:14.194Z,6.40
2023-03-19T02:20:54.042Z,6.40
2023-03-19T02:22:02.248Z,6.40
2023-03-19T02:23:37.094Z,6.40
2023-03-19T02:24:57.860Z,6.30
2023-03-19T02:26:09.850Z,6.30
2023-03-19T02:27:16.337Z,6.30
2023-03-19T02:28:24.438Z,6.40
2023-03-19T02:29:27.910Z,6.40
2023-03-19T02:30:52.570Z,6.30
2023-03-19T02:33:30.306Z,6.30
2023-03-19T02:37:18.101Z,6.40
2023-03-19T02:38:50.982Z,6.30
2023-03-19T02:41:02.242Z,6.20
2023-03-19T02:45:19.807Z,6.20
2023-03-19T02:46:24.998Z,6.10
2023-03-19T02:48:08.480Z,6.00
2023-03-19T02:49:28.154Z,6.10
2023-03-19T02:50:43.103Z,6.00
2023-03-19T02:51:55.775Z,6.10
2023-03-19T02:53:04.134Z,6.10
2023-03-19T02:54:08.871Z,6.00
2023-03-19T02:55:36.320Z,6.10
2023-03-19T02:56:45.737Z,6.10
2023-03-19T02:57:57.628Z,6.10
2023-03-19T02:59:09.418Z,6.10
2023-03-19T03:00:19.516Z,6.10
2023-03-19T03:01:28.109Z,6.10
2023-03-19T03:02:42.884Z,6.10
2023-03-19T03:03:54.851Z,6.10
2023-03-19T03:05:00.820Z,6.00
2023-03-19T03:06:04.880Z,6.10
2023-03-19T03:07:09.057Z,6.00
2023-03-19T03:08:16.784Z,6.00
2023-03-19T03:09:23.714Z,6.00
2023-03-19T03:10:28.703Z,6.00
2023-03-19T03:11:35.564Z,6.00
2023-03-19T03:12:38.871Z,6.00
2023-03-19T03:13:44.814Z,6.00
2023-03-19T03:14:47.075Z,6.00
2023-03-19T03:15:49.739Z,6.00
2023-03-19T03:16:52.510Z,6.00
2023-03-19T03:17:57.315Z,6.00
2023-03-19T03:19:00.787Z,6.00
2023-03-19T03:20:02.952Z,5.90
2023-03-19T03:21:10.792Z,6.00
2023-03-19T03:22:14.036Z,6.00
2023-03-19T03:23:23.375Z,5.90
2023-03-19T03:24:32.610Z,5.90
2023-03-19T03:25:39.831Z,5.90
2023-03-19T03:26:44.525Z,5.90
2023-03-19T03:29:53.994Z,5.80
2023-03-19T03:31:43.225Z,5.80
2023-03-19T03:33:14.390Z,5.70
2023-03-19T03:34:35.773Z,5.70
2023-03-19T03:35:50.992Z,5.70
2023-03-19T03:36:59.879Z,5.60
2023-03-19T03:38:14.212Z,5.70
2023-03-19T03:39:23.609Z,5.70
2023-03-19T03:40:45.112Z,5.70
2023-03-19T03:42:00.440Z,5.70
2023-03-19T03:43:26.936Z,5.60
2023-03-19T03:44:48.586Z,5.70
2023-03-19T03:45:59.902Z,5.60
2023-03-19T03:47:17.698Z,5.70
2023-03-19T03:48:26.420Z,5.70
2023-03-19T03:49:31.383Z,5.70
2023-03-19T03:50:43.049Z,5.70
2023-03-19T03:51:49.729Z,5.70
2023-03-19T03:53:04.880Z,5.70
2023-03-19T03:54:09.388Z,5.70
2023-03-19T03:55:13.154Z,5.70
2023-03-19T03:56:23.520Z,5.70
2023-03-19T03:57:28.542Z,5.70
2023-03-19T03:58:33.644Z,5.70
2023-03-19T03:59:42.196Z,5.70
2023-03-19T04:00:45.169Z,5.70
2023-03-19T04:01:50.699Z,5.70
2023-03-19T04:02:57.228Z,5.70
2023-03-19T04:04:01.691Z,5.80
2023-03-19T04:05:17.058Z,5.70
2023-03-19T04:06:24.815Z,5.70
2023-03-19T04:07:33.203Z,5.80
2023-03-19T04:08:41.639Z,5.80
2023-03-19T04:09:51.891Z,5.80
2023-03-19T04:10:58.611Z,5.80
2023-03-19T04:12:06.781Z,5.80
2023-03-19T04:13:19.929Z,5.80
2023-03-19T04:14:27.178Z,5.80
2023-03-19T04:15:35.208Z,5.80
2023-03-19T04:16:53.324Z,5.80
2023-03-19T04:18:08.191Z,5.80
2023-03-19T04:19:36.058Z,5.80
2023-03-19T04:20:56.718Z,5.80
2023-03-19T04:22:09.137Z,5.80
2023-03-19T04:23:18.849Z,5.80
2023-03-19T04:24:35.107Z,5.80
2023-03-19T04:26:12.266Z,5.80
2023-03-19T04:27:17.793Z,5.80
2023-03-19T04:28:24.207Z,5.80
2023-03-19T04:29:32.911Z,5.80
2023-03-19T04:30:42.825Z,5.80
2023-03-19T04:31:48.364Z,5.80
2023-03-19T04:32:54.209Z,5.90
2023-03-19T04:33:56.405Z,5.90
2023-03-19T04:35:00.624Z,5.80
2023-03-19T04:36:06.238Z,5.90
2023-03-19T04:37:10.486Z,5.90
2023-03-19T04:38:13.082Z,5.90
2023-03-19T04:39:22.070Z,5.90
2023-03-19T04:40:36.533Z,5.90
2023-03-19T04:41:39.733Z,5.90
2023-03-19T04:42:45.577Z,5.90
2023-03-19T04:43:48.584Z,5.90
2023-03-19T04:44:53.635Z,5.90
2023-03-19T04:45:56.965Z,5.90
2023-03-19T04:47:04.354Z,5.90
2023-03-19T04:48:10.705Z,6.00
2023-03-19T04:49:18.917Z,6.00
2023-03-19T04:50:23.035Z,6.00
2023-03-19T04:51:49.120Z,6.00
2023-03-19T04:52:51.831Z,6.00
2023-03-19T04:54:00.811Z,6.00
2023-03-19T04:55:09.002Z,6.00
2023-03-19T04:56:13.737Z,6.00
2023-03-19T04:57:35.653Z,6.00
2023-03-19T04:58:47.302Z,6.00
2023-03-19T04:59:56.886Z,6.00
2023-03-19T05:01:12.053Z,6.00
2023-03-19T05:02:15.789Z,6.00
2023-03-19T05:03:19.252Z,6.00
2023-03-19T05:04:30.771Z,6.00
2023-03-19T05:05:50.085Z,6.10
2023-03-19T05:06:52.575Z,6.10
2023-03-19T05:08:05.458Z,6.00
2023-03-19T05:09:16.969Z,6.10
2023-03-19T05:10:23.680Z,6.10
2023-03-19T05:11:26.376Z,6.10
2023-03-19T05:12:28.727Z,6.10
2023-03-19T05:13:30.980Z,6.10
2023-03-19T05:14:33.111Z,6.10
2023-03-19T05:15:35.578Z,6.10
2023-03-19T05:16:39.245Z,6.10
2023-03-19T05:17:44.409Z,6.10
2023-03-19T05:18:49.552Z,6.10
2023-03-19T05:19:54.737Z,6.10
2023-03-19T05:20:58.751Z,6.10
2023-03-19T05:22:01.313Z,6.10
2023-03-19T05:23:06.889Z,6.10
2023-03-19T05:24:10.568Z,6.10
2023-03-19T05:25:13.614Z,6.10
2023-03-19T05:26:28.635Z,6.10
2023-03-19T05:27:35.963Z,6.10
2023-03-19T05:28:53.922Z,6.10
2023-03-19T05:30:01.911Z,6.10
2023-03-19T05:31:06.459Z,6.10
2023-03-19T05:32:15.397Z,6.10
2023-03-19T05:33:23.071Z,6.20
2023-03-19T05:34:25.719Z,6.20
2023-03-19T05:35:33.104Z,6.20
2023-03-19T05:36:39.128Z,6.20
2023-03-19T05:37:43.652Z,6.20
2023-03-19T05:38:48.066Z,6.20
2023-03-19T05:39:51.258Z,6.20
2023-03-19T05:40:56.134Z,6.30
2023-03-19T05:41:59.392Z,6.30
2023-03-19T05:43:04.698Z,6.30
2023-03-19T05:44:09.282Z,6.30
2023-03-19T05:45:15.669Z,6.40
2023-03-19T05:46:20.531Z,6.40
2023-03-19T05:47:22.757Z,6.40
2023-03-19T05:48:25.879Z,6.40
2023-03-19T05:49:28.103Z,6.50
2023-03-19T05:50:30.134Z,6.50
2023-03-19T05:51:32.642Z,6.60
2023-03-19T05:52:38.404Z,6.60
2023-03-19T05:53:40.645Z,6.60
2023-03-19T05:54:47.957Z,6.60
2023-03-19T05:55:50.266Z,6.70
2023-03-19T05:56:55.170Z,6.70
2023-03-19T05:58:03.692Z,6.70
2023-03-19T05:59:11.013Z,6.70
2023-03-19T06:00:21.178Z,6.70
2023-03-19T06:01:24.983Z,6.80
2023-03-19T06:02:29.991Z,6.80
2023-03-19T06:03:33.047Z,6.80
2023-03-19T06:04:38.590Z,6.80
2023-03-19T06:05:44.686Z,6.80
2023-03-19T06:06:55.989Z,6.80
2023-03-19T06:08:06.035Z,6.80
2023-03-19T06:09:25.651Z,6.80
2023-03-19T06:10:52.373Z,6.70
2023-03-19T06:12:18.115Z,6.70
2023-03-19T06:13:30.507Z,6.70
2023-03-19T06:14:51.926Z,6.60
2023-03-19T06:16:14.859Z,6.60
2023-03-19T06:17:49.293Z,6.60
2023-03-19T06:19:06.872Z,6.60
2023-03-19T06:20:21.989Z,6.60
2023-03-19T06:21:35.283Z,6.70
2023-03-19T06:22:46.970Z,6.70
2023-03-19T06:23:52.334Z,6.80
2023-03-19T06:24:57.739Z,6.80
2023-03-19T06:26:10.783Z,6.80
2023-03-19T06:27:31.830Z,6.90
2023-03-19T06:28:36.935Z,6.90
2023-03-19T06:29:40.133Z,6.90
2023-03-19T06:30:42.482Z,6.90
2023-03-19T06:31:45.271Z,6.90
2023-03-19T06:32:48.797Z,7.00
2023-03-19T06:33:54.238Z,7.00
2023-03-19T06:35:00.198Z,7.00
2023-03-19T06:36:02.594Z,7.00
2023-03-19T06:37:07.671Z,7.00
2023-03-19T06:38:12.416Z,7.00
2023-03-19T06:39:14.979Z,7.10
2023-03-19T06:40:20.495Z,7.10
2023-03-19T06:41:22.838Z,7.10
2023-03-19T06:42:25.279Z,7.20
2023-03-19T06:43:27.575Z,7.20
2023-03-19T06:44:30.278Z,7.30
2023-03-19T06:45:35.763Z,7.30
2023-03-19T06:46:38.949Z,7.40
2023-03-19T06:47:43.287Z,7.40
2023-03-19T06:48:46.102Z,7.50
2023-03-19T06:49:48.339Z,7.50
2023-03-19T06:50:50.634Z,7.50
2023-03-19T06:51:53.509Z,7.50
2023-03-19T06:53:03.271Z,7.50
2023-03-19T06:54:13.552Z,7.50
2023-03-19T06:55:18.521Z,7.50
2023-03-19T06:56:21.861Z,7.50
2023-03-19T06:57:26.331Z,7.50
2023-03-19T06:58:33.201Z,7.40
2023-03-19T06:59:37.914Z,7.40
2023-03-19T07:00:54.672Z,7.40
2023-03-19T07:01:57.314Z,7.40
2023-03-19T07:03:11.496Z,7.50
2023-03-19T07:04:36.751Z,7.50
2023-03-19T07:05:54.572Z,7.50
2023-03-19T07:07:02.530Z,7.60
2023-03-19T07:08:05.057Z,7.60
2023-03-19T07:09:11.217Z,7.60
2023-03-19T07:10:23.143Z,7.60
2023-03-19T07:11:35.932Z,7.50
2023-03-19T07:12:47.748Z,7.60
2023-03-19T07:13:58.758Z,7.60
2023-03-19T07:15:01.455Z,7.70
2023-03-19T07:16:12.643Z,7.70
2023-03-19T07:17:17.463Z,7.70
2023-03-19T07:18:19.966Z,7.70
2023-03-19T07:19:30.465Z,7.70
2023-03-19T07:20:38.009Z,7.80
2023-03-19T07:21:46.280Z,7.80
2023-03-19T07:22:54.250Z,7.80
2023-03-19T07:24:10.209Z,7.80
2023-03-19T07:25:18.976Z,7.80
2023-03-19T07:27:58.052Z,7.90
2023-03-19T07:29:06.828Z,7.90
2023-03-19T07:30:12.360Z,7.90
2023-03-19T07:31:22.504Z,7.90
2023-03-19T07:32:28.024Z,8.00
2023-03-19T07:33:41.616Z,8.10
2023-03-19T07:34:46.129Z,8.10
2023-03-19T07:35:48.363Z,8.00
2023-03-19T07:36:53.826Z,8.00
2023-03-19T07:38:02.856Z,8.00
2023-03-19T07:39:04.928Z,8.00
2023-03-19T07:40:15.566Z,8.10
2023-03-19T07:41:22.553Z,8.00
2023-03-19T07:42:24.905Z,8.10
2023-03-19T07:43:32.651Z,8.10
2023-03-19T07:44:44.699Z,8.00
2023-03-19T07:45:46.966Z,8.00
2023-03-19T07:46:49.905Z,8.00
2023-03-19T07:47:52.709Z,7.90
2023-03-19T07:48:57.102Z,7.90
2023-03-19T07:50:00.141Z,7.90
2023-03-19T07:51:04.584Z,8.00
2023-03-19T07:52:06.778Z,8.00
2023-03-19T07:53:08.970Z,8.00
2023-03-19T07:54:11.085Z,7.90
2023-03-19T07:55:13.012Z,7.90
2023-03-19T07:56:15.747Z,7.90
2023-03-19T07:57:18.007Z,7.90
2023-03-19T07:58:20.003Z,7.90
2023-03-19T07:59:21.981Z,7.90
2023-03-19T08:00:24.048Z,7.90
2023-03-19T08:01:26.770Z,7.90
2023-03-19T08:02:29.107Z,7.90
2023-03-19T08:03:31.176Z,7.90
2023-03-19T08:04:38.231Z,7.90
2023-03-19T08:05:47.793Z,7.90
2023-03-19T08:06:58.936Z,7.90
2023-03-19T08:08:00.989Z,7.90
2023-03-19T08:09:06.736Z,7.90
2023-03-19T08:10:09.381Z,7.90
2023-03-19T08:11:11.815Z,7.90
2023-03-19T08:12:14.078Z,7.90
2023-03-19T08:13:16.152Z,7.90
2023-03-19T08:14:22.459Z,7.90
2023-03-19T08:15:24.604Z,7.90
2023-03-19T08:16:27.226Z,7.90
2023-03-19T08:17:29.354Z,8.00
2023-03-19T08:18:36.725Z,8.00
2023-03-19T08:19:38.725Z,8.00
2023-03-19T08:20:40.848Z,8.00
2023-03-19T08:21:43.192Z,8.00
2023-03-19T08:22:49.965Z,8.10
2023-03-19T08:23:53.285Z,8.10
2023-03-19T08:24:55.177Z,8.10
2023-03-19T08:25:57.215Z,8.10
2023-03-19T08:26:59.282Z,8.10
2023-03-19T08:28:01.524Z,8.10
2023-03-19T08:29:08.754Z,8.10
2023-03-19T08:30:11.453Z,8.10
2023-03-19T08:31:14.323Z,8.10
2023-03-19T08:32:16.354Z,8.10
2023-03-19T08:33:18.554Z,8.10
2023-03-19T08:34:21.488Z,8.10
2023-03-19T08:35:24.133Z,8.20
2023-03-19T08:36:27.268Z,8.20
2023-03-19T08:37:29.719Z,8.20
2023-03-19T08:38:40.731Z,8.10
2023-03-19T08:39:43.093Z,8.20
2023-03-19T08:40:45.039Z,8.20
2023-03-19T08:41:46.976Z,8.10
2023-03-19T08:42:49.102Z,8.20
2023-03-19T08:43:51.243Z,8.20
2023-03-19T08:44:53.314Z,8.20
2023-03-19T08:45:55.420Z,8.20
2023-03-19T08:46:57.354Z,8.20
2023-03-19T08:47:59.257Z,8.10
2023-03-19T08:49:01.279Z,8.10
2023-03-19T08:50:03.716Z,8.10
2023-03-19T08:51:06.008Z,8.20
2023-03-19T08:52:08.864Z,8.20
2023-03-19T08:53:10.784Z,8.30
2023-03-19T08:54:13.848Z,8.30
2023-03-19T08:55:16.435Z,8.30
2023-03-19T08:56:18.476Z,8.40
2023-03-19T08:57:21.276Z,8.40
2023-03-19T08:58:24.142Z,8.30
2023-03-19T08:59:26.449Z,8.30
2023-03-19T09:00:28.749Z,8.30
2023-03-19T09:01:30.919Z,8.30
2023-03-19T09:02:33.482Z,8.30
2023-03-19T09:03:36.517Z,8.30
2023-03-19T09:04:44.357Z,8.30
2023-03-19T09:05:47.151Z,8.30
2023-03-19T09:06:51.687Z,8.30
2023-03-19T09:07:54.254Z,8.20
2023-03-19T09:08:58.264Z,8.20
2023-03-19T09:10:00.155Z,8.20
2023-03-19T09:11:02.323Z,8.10
2023-03-19T09:12:10.887Z,8.10
2023-03-19T09:13:12.765Z,8.10
2023-03-19T09:14:16.812Z,8.10
2023-03-19T09:15:18.810Z,8.10
2023-03-19T09:16:20.745Z,8.10
2023-03-19T09:17:22.666Z,8.10
2023-03-19T09:18:25.631Z,8.10
2023-03-19T09:19:27.730Z,8.10
2023-03-19T09:20:29.862Z,8.10
2023-03-19T09:21:31.972Z,8.10
2023-03-19T09:22:34.008Z,8.20
2023-03-19T09:23:36.249Z,8.20
2023-03-19T09:24:40.460Z,8.20
2023-03-19T09:25:42.606Z,8.10
2023-03-19T09:26:44.885Z,8.20
2023-03-19T09:27:46.792Z,8.20
2023-03-19T09:28:48.725Z,8.20
2023-03-19T09:29:50.601Z,8.30
2023-03-19T09:30:53.050Z,8.30
2023-03-19T09:31:57.840Z,8.30
2023-03-19T09:32:59.852Z,8.30
2023-03-19T09:34:01.785Z,8.30
2023-03-19T09:35:04.476Z,8.40
2023-03-19T09:36:06.928Z,8.40
2023-03-19T09:37:11.675Z,8.40
2023-03-19T09:38:13.550Z,8.50
2023-03-19T09:39:15.423Z,8.50
2023-03-19T09:40:30.295Z,8.50
2023-03-19T09:41:36.356Z,8.50
2023-03-19T09:43:06.680Z,8.50
2023-03-19T09:44:16.280Z,8.50
2023-03-19T09:45:20.385Z,8.50
2023-03-19T09:46:46.411Z,8.50
2023-03-19T09:47:54.148Z,8.50
2023-03-19T09:49:38.554Z,8.50
2023-03-19T09:50:40.471Z,8.60
2023-03-19T09:51:48.988Z,8.60
2023-03-19T09:53:01.868Z,8.60
2023-03-19T09:54:13.546Z,8.60
2023-03-19T09:55:23.989Z,8.60
2023-03-19T09:56:27.150Z,8.60
2023-03-19T09:57:30.045Z,8.60
2023-03-19T09:58:34.576Z,8.60
2023-03-19T09:59:36.787Z,8.60
2023-03-19T10:00:39.781Z,8.60
2023-03-19T10:01:49.569Z,8.60
2023-03-19T10:03:26.377Z,8.70
2023-03-19T10:04:44.767Z,8.70
2023-03-19T10:06:13.974Z,8.70
2023-03-19T10:07:37.013Z,8.70
2023-03-19T10:08:53.737Z,8.70
2023-03-19T10:10:26.194Z,8.70
2023-03-19T10:11:31.055Z,8.70
2023-03-19T10:12:42.099Z,8.60
2023-03-19T10:14:14.637Z,8.70
2023-03-19T10:15:29.492Z,8.70
2023-03-19T10:16:31.531Z,8.70
2023-03-19T10:17:40.755Z,8.70
2023-03-19T10:18:48.215Z,8.70
2023-03-19T10:20:00.047Z,8.70
2023-03-19T10:21:31.956Z,8.70
2023-03-19T10:22:42.332Z,8.70
2023-03-19T10:23:55.714Z,8.70
2023-03-19T10:24:58.692Z,8.70
2023-03-19T10:26:03.486Z,8.70
2023-03-19T10:27:17.101Z,8.70
2023-03-19T10:28:19.022Z,8.70
2023-03-19T10:29:23.720Z,8.80
2023-03-19T10:30:26.127Z,8.80
2023-03-19T10:31:52.006Z,8.80
2023-03-19T10:33:20.344Z,8.80
2023-03-19T10:34:35.772Z,8.80
2023-03-19T10:35:44.539Z,8.70
2023-03-19T10:36:46.568Z,8.70
2023-03-19T10:37:50.747Z,8.60
2023-03-19T10:38:52.823Z,8.60
2023-03-19T10:39:59.478Z,8.70
2023-03-19T10:41:24.599Z,8.70
2023-03-19T10:42:45.669Z,8.70
2023-03-19T10:43:53.441Z,8.60
2023-03-19T10:45:13.660Z,8.60
2023-03-19T10:46:15.802Z,8.60
2023-03-19T10:47:22.976Z,8.60
2023-03-19T10:48:28.435Z,8.60
2023-03-19T10:49:36.604Z,8.60
2023-03-19T10:50:45.998Z,8.70
2023-03-19T10:51:48.947Z,8.70
2023-03-19T10:52:52.714Z,8.70
2023-03-19T10:53:56.969Z,8.70
2023-03-19T10:55:05.887Z,8.70
2023-03-19T10:56:21.017Z,8.80
2023-03-19T10:57:28.864Z,8.80
2023-03-19T10:58:33.006Z,8.80
2023-03-19T10:59:38.319Z,8.80
2023-03-19T11:00:40.255Z,8.90
2023-03-19T11:01:43.152Z,8.90
2023-03-19T11:02:56.205Z,8.90
2023-03-19T11:04:00.279Z,8.90
2023-03-19T11:05:14.326Z,8.90
2023-03-19T11:06:18.396Z,9.00
2023-03-19T11:07:21.746Z,9.00
2023-03-19T11:08:35.247Z,9.00
2023-03-19T11:09:46.862Z,9.00
2023-03-19T11:10:49.971Z,9.10
2023-03-19T11:11:57.796Z,9.10
2023-03-19T11:13:17.658Z,9.20
2023-03-19T11:14:39.341Z,9.20
2023-03-19T11:15:41.700Z,9.20
2023-03-19T11:16:58.600Z,9.20
2023-03-19T11:18:06.714Z,9.20
2023-03-19T11:19:28.219Z,9.20
2023-03-19T11:20:32.579Z,9.20
2023-03-19T11:21:37.169Z,9.20
2023-03-19T11:22:40.604Z,9.10
2023-03-19T11:23:42.719Z,9.10
2023-03-19T11:25:07.407Z,9.10
2023-03-19T11:26:10.392Z,9.20
2023-03-19T11:27:12.269Z,9.20
2023-03-19T11:28:19.734Z,9.20
2023-03-19T11:29:23.739Z,9.20
2023-03-19T11:30:28.795Z,9.20
2023-03-19T11:32:18.742Z,9.10
2023-03-19T11:33:46.406Z,9.10
2023-03-19T11:34:52.605Z,9.00
2023-03-19T11:36:05.543Z,9.00
2023-03-19T11:37:42.327Z,9.00
2023-03-19T11:38:53.342Z,9.00
2023-03-19T11:40:25.167Z,9.00
2023-03-19T11:41:36.766Z,9.10
2023-03-19T11:42:48.050Z,9.10
2023-03-19T11:44:02.170Z,9.10
2023-03-19T11:45:42.255Z,9.10
2023-03-19T11:47:06.804Z,9.10
2023-03-19T11:48:43.503Z,9.10
2023-03-19T11:50:00.444Z,9.20
2023-03-19T11:51:28.524Z,9.20
2023-03-19T11:52:48.864Z,9.20
2023-03-19T11:54:28.812Z,9.20
2023-03-19T11:56:21.789Z,9.20
2023-03-19T11:57:38.269Z,9.20
2023-03-19T11:59:01.428Z,9.30
2023-03-19T12:00:39.373Z,9.30
2023-03-19T12:02:02.169Z,9.30
2023-03-19T12:03:37.978Z,9.30
2023-03-19T12:04:49.385Z,9.30
2023-03-19T12:06:20.766Z,9.30
2023-03-19T12:07:43.904Z,9.30
2023-03-19T12:09:01.453Z,9.20
2023-03-19T12:10:35.672Z,9.20
2023-03-19T12:11:52.684Z,9.30
2023-03-19T12:13:19.649Z,9.30
2023-03-19T12:14:30.431Z,9.30
2023-03-19T12:15:43.466Z,9.30
2023-03-19T12:17:04.722Z,9.30
2023-03-19T12:18:48.140Z,9.40
2023-03-19T12:20:21.919Z,9.30
2023-03-19T12:21:37.628Z,9.30
2023-03-19T12:23:05.894Z,9.30
2023-03-19T12:24:29.752Z,9.40
2023-03-19T12:25:43.337Z,9.40
2023-03-19T12:27:05.660Z,9.40
2023-03-19T12:28:25.156Z,9.40
2023-03-19T12:29:51.193Z,9.50
2023-03-19T12:31:15.503Z,9.50
2023-03-19T12:32:47.377Z,9.50
2023-03-19T12:34:07.567Z,9.50
2023-03-19T12:35:14.540Z,9.50
2023-03-19T12:36:22.336Z,9.50
2023-03-19T12:37:37.741Z,9.60
2023-03-19T12:39:09.987Z,9.60
2023-03-19T12:40:37.006Z,9.70
2023-03-19T12:41:43.245Z,9.60
2023-03-19T12:42:45.879Z,9.60
2023-03-19T12:44:12.827Z,9.70
2023-03-19T12:45:37.949Z,9.70
2023-03-19T12:46:46.067Z,9.70
2023-03-19T12:47:49.237Z,9.70
2023-03-19T12:49:06.381Z,9.60
2023-03-19T12:50:13.945Z,9.70
2023-03-19T12:51:24.289Z,9.70
2023-03-19T12:52:28.802Z,9.80
2023-03-19T12:53:52.170Z,9.80
2023-03-19T12:55:05.997Z,9.80
2023-03-19T12:56:22.639Z,9.80
2023-03-19T12:57:35.909Z,9.80
2023-03-19T12:58:58.134Z,9.80
2023-03-19T13:00:18.075Z,9.80
2023-03-19T13:01:36.000Z,9.80
2023-03-19T13:03:00.952Z,9.80
2023-03-19T13:04:13.548Z,9.90
2023-03-19T13:05:15.479Z,9.90
2023-03-19T13:06:38.831Z,9.90
2023-03-19T13:07:43.470Z,10.00
2023-03-19T13:08:55.973Z,10.00
2023-03-19T13:10:22.449Z,10.00
2023-03-19T13:11:49.106Z,10.00
2023-03-19T13:12:53.006Z,10.00
2023-03-19T13:14:07.544Z,9.90
2023-03-19T13:15:39.018Z,9.90
2023-03-19T13:16:59.051Z,10.00
2023-03-19T13:18:17.526Z,9.90
2023-03-19T13:19:28.083Z,9.90
2023-03-19T13:20:51.382Z,10.00
2023-03-19T13:21:57.836Z,10.00
2023-03-19T13:23:05.967Z,10.00
2023-03-19T13:24:27.058Z,10.00
2023-03-19T13:25:37.173Z,10.00
2023-03-19T13:26:40.227Z,10.00
2023-03-19T13:27:42.548Z,10.00
2023-03-19T13:29:08.438Z,10.00
2023-03-19T13:30:10.600Z,10.00
2023-03-19T13:31:21.937Z,10.00
2023-03-19T13:32:24.942Z,10.10
2023-03-19T13:33:30.391Z,10.10
2023-03-19T13:34:37.433Z,10.00
2023-03-19T13:36:07.784Z,10.00
2023-03-19T13:37:20.823Z,10.10
2023-03-19T13:38:26.264Z,10.10
2023-03-19T13:39:32.936Z,10.10
2023-03-19T13:40:56.658Z,10.10
2023-03-19T13:42:10.145Z,10.10
2023-03-19T13:43:29.733Z,10.10
2023-03-19T13:44:31.877Z,10.10
2023-03-19T13:45:38.458Z,10.00
2023-03-19T13:46:45.204Z,10.10
2023-03-19T13:47:52.677Z,10.00
2023-03-19T13:48:55.778Z,10.10
2023-03-19T13:50:08.611Z,10.10
2023-03-19T13:51:19.648Z,10.10
2023-03-19T13:52:21.808Z,10.10
2023-03-19T13:53:38.247Z,10.10
2023-03-19T13:54:43.841Z,10.20
2023-03-19T13:55:51.848Z,10.20
2023-03-19T13:57:01.432Z,10.30
2023-03-19T13:58:12.587Z,10.30
2023-03-19T13:59:17.331Z,10.30
2023-03-19T14:00:43.508Z,10.30
2023-03-19T14:01:47.420Z,10.30
2023-03-19T14:02:52.994Z,10.30
2023-03-19T14:04:04.305Z,10.40
2023-03-19T14:05:21.043Z,10.40
2023-03-19T14:06:42.151Z,10.40
2023-03-19T14:07:51.342Z,10.40
2023-03-19T14:08:53.423Z,10.40
2023-03-19T14:09:58.361Z,10.40
2023-03-19T14:11:02.833Z,10.50
2023-03-19T14:12:22.781Z,10.40
2023-03-19T14:13:41.967Z,10.50
2023-03-19T14:14:47.873Z,10.50
2023-03-19T14:15:51.355Z,10.40
2023-03-19T14:16:53.780Z,10.40
2023-03-19T14:18:13.889Z,10.40
2023-03-19T14:19:20.838Z,10.40
2023-03-19T14:20:48.807Z,10.40
2023-03-19T14:22:07.938Z,10.40
2023-03-19T14:23:11.228Z,10.40
2023-03-19T14:24:55.263Z,10.30
2023-03-19T14:26:06.574Z,10.30
2023-03-19T14:27:18.307Z,10.30
2023-03-19T14:28:43.221Z,10.30
2023-03-19T14:29:47.378Z,10.30
2023-03-19T14:30:50.465Z,10.30
2023-03-19T14:31:56.029Z,10.30
2023-03-19T14:33:04.506Z,10.30
2023-03-19T14:34:15.046Z,10.30
2023-03-19T14:35:20.658Z,10.40
2023-03-19T14:36:23.768Z,10.30
2023-03-19T14:37:28.490Z,10.30
2023-03-19T14:38:50.533Z,10.30
2023-03-19T14:40:26.184Z,10.40
2023-03-19T14:41:33.782Z,10.40
2023-03-19T14:43:00.274Z,10.30
2023-03-19T14:44:31.304Z,10.40
2023-03-19T14:45:53.733Z,10.30
2023-03-19T14:47:29.953Z,10.30
2023-03-19T14:49:04.915Z,10.30
2023-03-19T14:50:13.021Z,10.20
2023-03-19T14:51:15.028Z,10.20
2023-03-19T14:52:26.946Z,10.20
2023-03-19T14:53:54.314Z,10.20
2023-03-19T14:55:01.561Z,10.20
2023-03-19T14:56:13.385Z,10.30
2023-03-19T14:57:21.503Z,10.30
2023-03-19T14:58:23.596Z,10.30
2023-03-19T14:59:25.603Z,10.30
2023-03-19T15:00:28.719Z,10.30
2023-03-19T15:01:33.306Z,10.30
2023-03-19T15:02:50.291Z,10.30
2023-03-19T15:04:22.777Z,10.30
2023-03-19T15:05:29.453Z,10.30
2023-03-19T15:06:38.369Z,10.20
2023-03-19T15:07:44.793Z,10.30
2023-03-19T15:08:49.534Z,10.20
2023-03-19T15:09:55.130Z,10.20
2023-03-19T15:11:16.214Z,10.30
2023-03-19T15:12:18.182Z,10.20
2023-03-19T15:13:52.157Z,10.20
2023-03-19T15:15:13.271Z,10.20
2023-03-19T15:16:33.968Z,10.10
2023-03-19T15:17:39.672Z,10.10
2023-03-19T15:18:41.725Z,10.10
2023-03-19T15:19:46.079Z,10.10
2023-03-19T15:20:54.465Z,10.10
2023-03-19T15:22:09.235Z,10.10
2023-03-19T15:23:26.442Z,10.10
2023-03-19T15:24:29.748Z,10.10
2023-03-19T15:25:34.700Z,10.10
2023-03-19T15:26:37.730Z,10.10
2023-03-19T15:27:40.819Z,10.10
2023-03-19T15:28:53.795Z,10.10
2023-03-19T15:30:07.293Z,10.20
2023-03-19T15:31:31.926Z,10.10
2023-03-19T15:33:03.781Z,10.10
2023-03-19T15:34:22.244Z,10.10
2023-03-19T15:35:34.348Z,10.10
2023-03-19T15:36:36.880Z,10.00
2023-03-19T15:37:51.255Z,10.00
2023-03-19T15:39:11.030Z,10.10
2023-03-19T15:40:16.268Z,10.10
2023-03-19T15:41:19.017Z,10.10
2023-03-19T15:42:22.942Z,10.10
2023-03-19T15:43:26.793Z,10.00
2023-03-19T15:44:52.375Z,10.10
2023-03-19T15:45:55.699Z,10.10
2023-03-19T15:46:59.264Z,10.00
2023-03-19T15:48:04.012Z,10.10
2023-03-19T15:49:23.669Z,10.00
2023-03-19T15:50:30.385Z,10.10
2023-03-19T15:51:33.300Z,10.00